Mira, Louisiana
Current Conditions -  °F | °C
As of 2:53 AM on Thursday 23 Oct 2014 (Local Time) from KDTN Reporting Station
Clear Clear  
Wind Chill: 57°   Ceiling: Unl
Heat Index: 57°   Visibility: 10mi
Dew Point: 49°   Wind: 3mph
Humidity: 74%   Direction: 70°ENE
Pressure: 30.13"   Gusts: NA
Location:  32.9743°N, 93.8778°W
Report Text: KDTN 230753Z AUTO 07003KT 10SM CLR 14/09 A3013 RMK AO2 SLP200 T01390094
Loading
Personal Weather Stations






























Interactive Weather Map
Tropical Storm Tracking
New forecast layout! Learn more

10-Day Weather Forecast

Advertisements
Track Severe Weather on mobile